Pagina principale
METAR-TAF:

METAR-TAF

Aeroporti :

Alpnach, Svizzera

latitudine: 46-56-19N, longitudine: 8-17-03E, altezza: 440 m

Osservazione

Il bollettino è stato emesso 12 minuti fa, alle 17:50 UTC
Vento calmo
Temperature 1°C
Umidità 100%
Pressione 1028 hPa
Visibilità: 6000 m
Poco nuvoloso ad un'altezza di 1100 ft
Cielo coperto ad un'altezza di 7200 ft

METAR: LSMA 201750Z AUTO 00000KT 6000NDV FEW011 OVC072 01/01 Q1028 RMK

Ora: 19:02 (18:02 UTC)


TAF: mancante

Osservazioni e previsioni meteorologiche di più di 4000 aeroporti (messaggi METAR e TAF).

Le stazioni disponibili sono rappresentate dai dischi gialli e rossi sulla carta.

Puntare il mouse per vedere il nome della stazione.

Clicca sopra per visualizzare le osservazioni e previsioni meteorologiche.

Per cambiare la mappa : fare clic sui pulsanti verdi con una croce nera per ingrandire, il pulsante verde con un trattino per diminuire, o sulla freccia verde per le mappe adiacenti.


METAR-TAF: